Terminal Aerodrome Forecast
Issued by NWS Newport/Morehead City, NC

Home | Current Version | Previous Version | Graphics & Text | Print | Product List | Glossary On
Versions: 1 2 3 4 5 6 7 8 9 10 11 12 13 14 15 16 17 18 19 20 21
000
FTUS42 KMHX 170900 AAB
TAFEWN
TAF AMD
KEWN 170901Z 1709/1806 08005KT P6SM VCTS OVC040CB
      TEMPO 1709/1710 2SM +TSRA
     FM171100 VRB03KT P6SM BKN040 OVC100
     FM171300 03005KT P6SM VCSH OVC050
     FM171900 07005KT P6SM VCSH BKN050=

USA.gov is the U.S. government's official web portal to all federal, state and local government web resources and services.